sensor_id;sensor_type;location;lat;lon;timestamp;P1;durP1;ratioP1;P2;durP2;ratioP2
14272;SDS011;7220;49.450;11.052;2023-03-04T00:03:10;15.43;;;11.52;;
14272;SDS011;7220;49.450;11.052;2023-03-04T00:07:13;18.10;;;11.63;;
14272;SDS011;7220;49.450;11.052;2023-03-04T00:11:15;17.13;;;11.70;;
14272;SDS011;7220;49.450;11.052;2023-03-04T00:15:16;16.27;;;10.80;;
14272;SDS011;7220;49.450;11.052;2023-03-04T00:19:16;17.10;;;10.80;;
14272;SDS011;7220;49.450;11.052;2023-03-04T00:23:16;15.98;;;10.52;;
14272;SDS011;7220;49.450;11.052;2023-03-04T00:27:17;14.57;;;9.97;;
14272;SDS011;7220;49.450;11.052;2023-03-04T00:31:17;14.00;;;9.83;;
14272;SDS011;7220;49.450;11.052;2023-03-04T00:35:17;17.50;;;10.82;;
14272;SDS011;7220;49.450;11.052;2023-03-04T00:39:17;15.13;;;10.70;;
14272;SDS011;7220;49.450;11.052;2023-03-04T00:43:18;14.43;;;10.20;;
14272;SDS011;7220;49.450;11.052;2023-03-04T00:47:19;15.67;;;10.67;;
14272;SDS011;7220;49.450;11.052;2023-03-04T00:51:19;16.47;;;10.67;;
14272;SDS011;7220;49.450;11.052;2023-03-04T00:55:19;14.60;;;10.23;;
14272;SDS011;7220;49.450;11.052;2023-03-04T00:59:20;12.90;;;9.77;;
14272;SDS011;7220;49.450;11.052;2023-03-04T01:03:20;15.37;;;10.33;;
14272;SDS011;7220;49.450;11.052;2023-03-04T01:07:20;14.90;;;10.27;;
14272;SDS011;7220;49.450;11.052;2023-03-04T01:11:20;13.50;;;9.67;;
14272;SDS011;7220;49.450;11.052;2023-03-04T01:15:21;14.70;;;9.30;;
14272;SDS011;7220;49.450;11.052;2023-03-04T01:19:21;14.13;;;9.37;;
14272;SDS011;7220;49.450;11.052;2023-03-04T01:23:22;15.13;;;9.53;;
14272;SDS011;7220;49.450;11.052;2023-03-04T01:27:22;13.43;;;9.73;;
14272;SDS011;7220;49.450;11.052;2023-03-04T01:31:22;16.47;;;10.73;;
14272;SDS011;7220;49.450;11.052;2023-03-04T01:35:23;12.53;;;10.03;;
14272;SDS011;7220;49.450;11.052;2023-03-04T01:39:23;14.67;;;10.40;;
14272;SDS011;7220;49.450;11.052;2023-03-04T01:43:24;13.73;;;9.50;;
14272;SDS011;7220;49.450;11.052;2023-03-04T01:47:27;15.43;;;9.67;;
14272;SDS011;7220;49.450;11.052;2023-03-04T01:51:30;14.37;;;9.57;;
14272;SDS011;7220;49.450;11.052;2023-03-04T01:55:30;13.77;;;9.47;;
14272;SDS011;7220;49.450;11.052;2023-03-04T01:59:31;12.60;;;8.60;;
14272;SDS011;7220;49.450;11.052;2023-03-04T02:03:31;14.33;;;8.57;;
14272;SDS011;7220;49.450;11.052;2023-03-04T02:07:31;10.40;;;8.17;;
14272;SDS011;7220;49.450;11.052;2023-03-04T02:11:32;11.40;;;8.53;;
14272;SDS011;7220;49.450;11.052;2023-03-04T02:15:33;10.73;;;7.57;;
14272;SDS011;7220;49.450;11.052;2023-03-04T02:19:41;12.07;;;8.07;;
14272;SDS011;7220;49.450;11.052;2023-03-04T02:28:14;14.07;;;9.00;;
14272;SDS011;7220;49.450;11.052;2023-03-04T02:32:15;12.00;;;8.80;;
14272;SDS011;7220;49.450;11.052;2023-03-04T02:36:15;11.63;;;8.43;;
14272;SDS011;7220;49.450;11.052;2023-03-04T02:40:20;14.00;;;9.27;;
14272;SDS011;7220;49.450;11.052;2023-03-04T02:44:25;11.93;;;8.67;;
14272;SDS011;7220;49.450;11.052;2023-03-04T02:48:27;11.50;;;9.07;;
14272;SDS011;7220;49.450;11.052;2023-03-04T02:52:27;13.63;;;8.90;;
14272;SDS011;7220;49.450;11.052;2023-03-04T02:56:27;14.63;;;9.60;;
14272;SDS011;7220;49.450;11.052;2023-03-04T03:00:28;13.33;;;9.03;;
14272;SDS011;7220;49.450;11.052;2023-03-04T03:04:28;12.60;;;8.90;;
14272;SDS011;7220;49.450;11.052;2023-03-04T03:08:29;12.40;;;8.33;;
14272;SDS011;7220;49.450;11.052;2023-03-04T03:12:29;11.57;;;8.27;;
14272;SDS011;7220;49.450;11.052;2023-03-04T03:16:29;14.53;;;9.53;;
14272;SDS011;7220;49.450;11.052;2023-03-04T03:20:30;12.80;;;8.97;;
14272;SDS011;7220;49.450;11.052;2023-03-04T03:24:30;12.83;;;8.77;;
14272;SDS011;7220;49.450;11.052;2023-03-04T03:28:30;15.13;;;9.23;;
14272;SDS011;7220;49.450;11.052;2023-03-04T03:32:31;13.47;;;9.00;;
14272;SDS011;7220;49.450;11.052;2023-03-04T03:36:31;14.67;;;9.63;;
14272;SDS011;7220;49.450;11.052;2023-03-04T03:40:31;13.07;;;9.30;;
14272;SDS011;7220;49.450;11.052;2023-03-04T03:44:32;15.43;;;11.00;;
14272;SDS011;7220;49.450;11.052;2023-03-04T03:48:32;16.47;;;11.27;;
14272;SDS011;7220;49.450;11.052;2023-03-04T03:52:33;18.70;;;12.00;;
14272;SDS011;7220;49.450;11.052;2023-03-04T03:56:33;18.57;;;11.83;;
14272;SDS011;7220;49.450;11.052;2023-03-04T04:00:33;17.07;;;11.60;;
14272;SDS011;7220;49.450;11.052;2023-03-04T04:04:33;18.30;;;12.37;;
14272;SDS011;7220;49.450;11.052;2023-03-04T04:08:34;15.60;;;11.37;;
14272;SDS011;7220;49.450;11.052;2023-03-04T04:12:34;17.20;;;11.27;;
14272;SDS011;7220;49.450;11.052;2023-03-04T04:16:34;20.10;;;12.40;;
14272;SDS011;7220;49.450;11.052;2023-03-04T04:20:35;16.37;;;10.57;;
14272;SDS011;7220;49.450;11.052;2023-03-04T04:24:35;15.97;;;11.03;;
14272;SDS011;7220;49.450;11.052;2023-03-04T04:28:36;19.23;;;11.83;;
14272;SDS011;7220;49.450;11.052;2023-03-04T04:32:36;17.53;;;11.30;;
14272;SDS011;7220;49.450;11.052;2023-03-04T04:36:36;16.50;;;11.47;;
14272;SDS011;7220;49.450;11.052;2023-03-04T04:40:36;17.37;;;10.37;;
14272;SDS011;7220;49.450;11.052;2023-03-04T04:44:37;16.07;;;11.07;;
14272;SDS011;7220;49.450;11.052;2023-03-04T04:48:37;17.97;;;10.63;;
14272;SDS011;7220;49.450;11.052;2023-03-04T04:52:38;19.50;;;11.70;;
14272;SDS011;7220;49.450;11.052;2023-03-04T04:56:38;17.70;;;11.30;;
14272;SDS011;7220;49.450;11.052;2023-03-04T05:00:38;18.53;;;10.43;;
14272;SDS011;7220;49.450;11.052;2023-03-04T05:04:39;21.13;;;11.93;;
14272;SDS011;7220;49.450;11.052;2023-03-04T05:08:39;16.67;;;11.00;;
14272;SDS011;7220;49.450;11.052;2023-03-04T05:12:40;18.67;;;11.20;;
14272;SDS011;7220;49.450;11.052;2023-03-04T05:16:40;18.17;;;10.80;;
14272;SDS011;7220;49.450;11.052;2023-03-04T05:20:40;16.97;;;10.43;;
14272;SDS011;7220;49.450;11.052;2023-03-04T05:24:41;18.10;;;11.60;;
14272;SDS011;7220;49.450;11.052;2023-03-04T05:28:41;20.43;;;12.50;;
14272;SDS011;7220;49.450;11.052;2023-03-04T05:32:41;17.80;;;11.20;;
14272;SDS011;7220;49.450;11.052;2023-03-04T05:36:42;18.30;;;11.37;;
14272;SDS011;7220;49.450;11.052;2023-03-04T05:40:42;15.77;;;11.13;;
14272;SDS011;7220;49.450;11.052;2023-03-04T05:44:43;18.77;;;11.17;;
14272;SDS011;7220;49.450;11.052;2023-03-04T05:48:43;17.40;;;11.17;;
14272;SDS011;7220;49.450;11.052;2023-03-04T05:52:43;18.50;;;11.17;;
14272;SDS011;7220;49.450;11.052;2023-03-04T05:56:44;20.67;;;11.27;;
14272;SDS011;7220;49.450;11.052;2023-03-04T06:00:45;20.13;;;11.70;;
14272;SDS011;7220;49.450;11.052;2023-03-04T06:04:45;17.33;;;10.30;;
14272;SDS011;7220;49.450;11.052;2023-03-04T06:08:45;18.47;;;10.87;;
14272;SDS011;7220;49.450;11.052;2023-03-04T06:12:46;18.63;;;11.87;;
14272;SDS011;7220;49.450;11.052;2023-03-04T06:16:46;22.47;;;13.03;;
14272;SDS011;7220;49.450;11.052;2023-03-04T06:20:46;23.43;;;12.93;;
14272;SDS011;7220;49.450;11.052;2023-03-04T06:24:47;22.73;;;13.27;;
14272;SDS011;7220;49.450;11.052;2023-03-04T06:28:47;20.17;;;12.63;;
14272;SDS011;7220;49.450;11.052;2023-03-04T06:32:47;20.13;;;12.00;;
14272;SDS011;7220;49.450;11.052;2023-03-04T06:36:48;23.67;;;12.27;;
14272;SDS011;7220;49.450;11.052;2023-03-04T06:40:48;22.20;;;11.93;;
14272;SDS011;7220;49.450;11.052;2023-03-04T06:44:49;20.47;;;11.90;;
14272;SDS011;7220;49.450;11.052;2023-03-04T06:48:49;18.13;;;11.90;;
14272;SDS011;7220;49.450;11.052;2023-03-04T06:52:49;19.47;;;12.27;;
14272;SDS011;7220;49.450;11.052;2023-03-04T06:56:49;20.87;;;11.10;;
14272;SDS011;7220;49.450;11.052;2023-03-04T07:00:50;23.57;;;13.00;;
14272;SDS011;7220;49.450;11.052;2023-03-04T07:04:50;19.53;;;11.60;;
14272;SDS011;7220;49.450;11.052;2023-03-04T07:08:51;19.50;;;12.30;;
14272;SDS011;7220;49.450;11.052;2023-03-04T07:12:52;20.80;;;12.40;;
14272;SDS011;7220;49.450;11.052;2023-03-04T07:16:52;17.47;;;11.50;;
14272;SDS011;7220;49.450;11.052;2023-03-04T07:20:52;22.33;;;13.60;;
14272;SDS011;7220;49.450;11.052;2023-03-04T07:24:53;22.70;;;13.57;;
14272;SDS011;7220;49.450;11.052;2023-03-04T07:28:53;20.07;;;11.97;;
14272;SDS011;7220;49.450;11.052;2023-03-04T07:32:56;23.53;;;12.33;;
14272;SDS011;7220;49.450;11.052;2023-03-04T07:36:57;21.13;;;11.93;;
14272;SDS011;7220;49.450;11.052;2023-03-04T07:40:57;19.37;;;12.57;;
14272;SDS011;7220;49.450;11.052;2023-03-04T07:44:58;21.73;;;13.10;;
14272;SDS011;7220;49.450;11.052;2023-03-04T07:49:00;20.20;;;12.40;;
14272;SDS011;7220;49.450;11.052;2023-03-04T07:53:01;22.47;;;13.70;;
14272;SDS011;7220;49.450;11.052;2023-03-04T07:57:01;19.77;;;12.83;;
14272;SDS011;7220;49.450;11.052;2023-03-04T08:01:07;22.67;;;13.40;;
14272;SDS011;7220;49.450;11.052;2023-03-04T08:05:08;75.30;;;31.70;;
14272;SDS011;7220;49.450;11.052;2023-03-04T08:09:09;41.53;;;19.17;;
14272;SDS011;7220;49.450;11.052;2023-03-04T08:13:12;53.70;;;27.53;;
14272;SDS011;7220;49.450;11.052;2023-03-04T08:17:12;29.47;;;18.00;;
14272;SDS011;7220;49.450;11.052;2023-03-04T08:21:14;22.17;;;13.47;;
14272;SDS011;7220;49.450;11.052;2023-03-04T08:25:17;21.77;;;13.13;;
14272;SDS011;7220;49.450;11.052;2023-03-04T08:29:21;23.70;;;13.37;;
14272;SDS011;7220;49.450;11.052;2023-03-04T08:33:23;19.52;;;12.23;;
14272;SDS011;7220;49.450;11.052;2023-03-04T08:37:23;20.00;;;13.43;;
14272;SDS011;7220;49.450;11.052;2023-03-04T08:41:23;20.03;;;12.30;;
14272;SDS011;7220;49.450;11.052;2023-03-04T08:45:26;20.20;;;11.45;;
14272;SDS011;7220;49.450;11.052;2023-03-04T08:49:26;17.43;;;11.97;;
14272;SDS011;7220;49.450;11.052;2023-03-04T08:53:27;20.15;;;12.77;;
14272;SDS011;7220;49.450;11.052;2023-03-04T08:57:27;19.00;;;12.10;;
14272;SDS011;7220;49.450;11.052;2023-03-04T09:01:27;19.50;;;11.50;;
14272;SDS011;7220;49.450;11.052;2023-03-04T09:05:28;22.08;;;12.38;;
14272;SDS011;7220;49.450;11.052;2023-03-04T09:09:29;21.03;;;12.57;;
14272;SDS011;7220;49.450;11.052;2023-03-04T09:13:30;19.07;;;13.47;;
14272;SDS011;7220;49.450;11.052;2023-03-04T09:17:31;22.57;;;13.67;;
14272;SDS011;7220;49.450;11.052;2023-03-04T09:21:32;20.52;;;12.50;;
14272;SDS011;7220;49.450;11.052;2023-03-04T09:25:32;22.33;;;12.97;;
14272;SDS011;7220;49.450;11.052;2023-03-04T09:29:32;21.42;;;13.43;;
14272;SDS011;7220;49.450;11.052;2023-03-04T09:33:33;23.73;;;14.90;;
14272;SDS011;7220;49.450;11.052;2023-03-04T09:37:33;35.63;;;20.60;;
14272;SDS011;7220;49.450;11.052;2023-03-04T09:41:39;25.50;;;16.13;;
14272;SDS011;7220;49.450;11.052;2023-03-04T09:45:49;20.73;;;15.43;;
14272;SDS011;7220;49.450;11.052;2023-03-04T09:49:53;20.77;;;13.05;;
14272;SDS011;7220;49.450;11.052;2023-03-04T10:07:29;18.23;;;12.93;;
14272;SDS011;7220;49.450;11.052;2023-03-04T10:11:41;18.85;;;12.45;;
14272;SDS011;7220;49.450;11.052;2023-03-04T10:15:45;18.92;;;12.50;;
14272;SDS011;7220;49.450;11.052;2023-03-04T10:24:15;19.75;;;13.70;;
14272;SDS011;7220;49.450;11.052;2023-03-04T10:32:32;17.02;;;12.20;;
14272;SDS011;7220;49.450;11.052;2023-03-04T10:36:35;21.17;;;13.85;;
14272;SDS011;7220;49.450;11.052;2023-03-04T10:40:37;19.58;;;13.15;;
14272;SDS011;7220;49.450;11.052;2023-03-04T10:44:41;18.25;;;12.27;;
14272;SDS011;7220;49.450;11.052;2023-03-04T10:48:43;20.40;;;13.05;;
14272;SDS011;7220;49.450;11.052;2023-03-04T10:52:48;17.88;;;12.10;;
14272;SDS011;7220;49.450;11.052;2023-03-04T10:56:52;19.58;;;13.02;;
14272;SDS011;7220;49.450;11.052;2023-03-04T11:01:01;17.88;;;13.45;;
14272;SDS011;7220;49.450;11.052;2023-03-04T11:05:15;15.48;;;11.35;;
14272;SDS011;7220;49.450;11.052;2023-03-04T11:09:23;20.45;;;12.40;;
14272;SDS011;7220;49.450;11.052;2023-03-04T11:13:28;18.73;;;12.32;;
14272;SDS011;7220;49.450;11.052;2023-03-04T11:17:39;17.88;;;11.60;;
14272;SDS011;7220;49.450;11.052;2023-03-04T11:21:42;15.95;;;10.85;;
14272;SDS011;7220;49.450;11.052;2023-03-04T11:25:47;17.45;;;11.82;;
14272;SDS011;7220;49.450;11.052;2023-03-04T11:29:54;15.25;;;10.60;;
14272;SDS011;7220;49.450;11.052;2023-03-04T11:34:03;16.75;;;10.75;;
14272;SDS011;7220;49.450;11.052;2023-03-04T11:38:20;14.82;;;10.70;;
14272;SDS011;7220;49.450;11.052;2023-03-04T11:50:52;16.48;;;10.90;;
14272;SDS011;7220;49.450;11.052;2023-03-04T12:21:03;18.83;;;12.38;;
14272;SDS011;7220;49.450;11.052;2023-03-04T12:29:17;15.05;;;12.20;;
14272;SDS011;7220;49.450;11.052;2023-03-04T12:33:52;19.95;;;13.02;;
14272;SDS011;7220;49.450;11.052;2023-03-04T12:37:56;15.00;;;11.68;;
14272;SDS011;7220;49.450;11.052;2023-03-04T12:55:34;16.63;;;11.07;;
14272;SDS011;7220;49.450;11.052;2023-03-04T12:59:39;18.98;;;11.77;;
14272;SDS011;7220;49.450;11.052;2023-03-04T13:03:52;16.25;;;12.10;;
14272;SDS011;7220;49.450;11.052;2023-03-04T13:08:36;14.05;;;11.05;;
14272;SDS011;7220;49.450;11.052;2023-03-04T13:12:54;17.70;;;10.32;;
14272;SDS011;7220;49.450;11.052;2023-03-04T13:21:46;16.17;;;10.73;;
14272;SDS011;7220;49.450;11.052;2023-03-04T13:29:56;15.05;;;11.50;;
14272;SDS011;7220;49.450;11.052;2023-03-04T13:33:57;17.35;;;10.90;;
14272;SDS011;7220;49.450;11.052;2023-03-04T13:37:59;19.15;;;11.52;;
14272;SDS011;7220;49.450;11.052;2023-03-04T13:42:00;18.00;;;11.32;;
14272;SDS011;7220;49.450;11.052;2023-03-04T13:50:37;19.77;;;11.15;;
14272;SDS011;7220;49.450;11.052;2023-03-04T13:54:39;17.83;;;10.55;;
14272;SDS011;7220;49.450;11.052;2023-03-04T13:58:40;14.95;;;11.55;;
14272;SDS011;7220;49.450;11.052;2023-03-04T14:02:41;17.98;;;11.80;;
14272;SDS011;7220;49.450;11.052;2023-03-04T14:06:42;18.90;;;12.27;;
14272;SDS011;7220;49.450;11.052;2023-03-04T14:10:53;17.48;;;11.82;;
14272;SDS011;7220;49.450;11.052;2023-03-04T14:14:55;16.80;;;11.80;;
14272;SDS011;7220;49.450;11.052;2023-03-04T14:18:59;20.05;;;12.15;;
14272;SDS011;7220;49.450;11.052;2023-03-04T14:27:24;19.33;;;11.93;;
14272;SDS011;7220;49.450;11.052;2023-03-04T14:31:25;15.13;;;10.63;;
14272;SDS011;7220;49.450;11.052;2023-03-04T14:35:29;18.92;;;11.60;;
14272;SDS011;7220;49.450;11.052;2023-03-04T14:39:31;18.48;;;11.88;;
14272;SDS011;7220;49.450;11.052;2023-03-04T14:43:35;14.30;;;11.70;;
14272;SDS011;7220;49.450;11.052;2023-03-04T14:47:41;14.38;;;11.18;;
14272;SDS011;7220;49.450;11.052;2023-03-04T14:51:47;16.77;;;11.27;;
14272;SDS011;7220;49.450;11.052;2023-03-04T14:56:03;17.27;;;10.38;;
14272;SDS011;7220;49.450;11.052;2023-03-04T15:04:21;16.75;;;10.07;;
14272;SDS011;7220;49.450;11.052;2023-03-04T15:08:23;14.57;;;10.90;;
14272;SDS011;7220;49.450;11.052;2023-03-04T15:12:27;16.65;;;10.48;;
14272;SDS011;7220;49.450;11.052;2023-03-04T15:16:51;19.88;;;11.50;;
14272;SDS011;7220;49.450;11.052;2023-03-04T15:20:56;15.95;;;10.25;;
14272;SDS011;7220;49.450;11.052;2023-03-04T15:24:57;14.07;;;10.43;;
14272;SDS011;7220;49.450;11.052;2023-03-04T15:28:57;14.88;;;10.60;;
14272;SDS011;7220;49.450;11.052;2023-03-04T15:32:58;20.00;;;10.05;;
14272;SDS011;7220;49.450;11.052;2023-03-04T15:36:59;17.55;;;10.63;;
14272;SDS011;7220;49.450;11.052;2023-03-04T15:40:59;16.65;;;10.60;;
14272;SDS011;7220;49.450;11.052;2023-03-04T15:45:00;20.15;;;10.27;;
14272;SDS011;7220;49.450;11.052;2023-03-04T15:49:00;14.30;;;9.15;;
14272;SDS011;7220;49.450;11.052;2023-03-04T15:53:01;18.85;;;11.00;;
14272;SDS011;7220;49.450;11.052;2023-03-04T15:57:06;15.10;;;9.65;;
14272;SDS011;7220;49.450;11.052;2023-03-04T16:01:15;13.93;;;9.95;;
14272;SDS011;7220;49.450;11.052;2023-03-04T16:05:16;15.27;;;10.23;;
14272;SDS011;7220;49.450;11.052;2023-03-04T16:09:17;15.00;;;10.02;;
14272;SDS011;7220;49.450;11.052;2023-03-04T16:13:20;15.10;;;10.20;;
14272;SDS011;7220;49.450;11.052;2023-03-04T16:17:22;18.63;;;10.18;;
14272;SDS011;7220;49.450;11.052;2023-03-04T16:21:22;17.80;;;10.55;;
14272;SDS011;7220;49.450;11.052;2023-03-04T16:25:23;16.02;;;10.52;;
14272;SDS011;7220;49.450;11.052;2023-03-04T16:29:24;19.58;;;10.80;;
14272;SDS011;7220;49.450;11.052;2023-03-04T16:33:24;16.05;;;9.35;;
14272;SDS011;7220;49.450;11.052;2023-03-04T16:37:25;15.20;;;10.70;;
14272;SDS011;7220;49.450;11.052;2023-03-04T16:41:26;14.70;;;9.73;;
14272;SDS011;7220;49.450;11.052;2023-03-04T16:45:29;17.30;;;11.05;;
14272;SDS011;7220;49.450;11.052;2023-03-04T16:49:29;18.90;;;10.18;;
14272;SDS011;7220;49.450;11.052;2023-03-04T16:53:33;15.73;;;9.85;;
14272;SDS011;7220;49.450;11.052;2023-03-04T16:57:36;17.33;;;9.45;;
14272;SDS011;7220;49.450;11.052;2023-03-04T17:01:36;22.60;;;9.63;;
14272;SDS011;7220;49.450;11.052;2023-03-04T17:05:37;18.23;;;10.70;;
14272;SDS011;7220;49.450;11.052;2023-03-04T17:09:37;16.60;;;9.48;;
14272;SDS011;7220;49.450;11.052;2023-03-04T17:13:39;24.05;;;11.35;;
14272;SDS011;7220;49.450;11.052;2023-03-04T17:17:43;16.63;;;10.02;;
14272;SDS011;7220;49.450;11.052;2023-03-04T17:21:44;16.25;;;10.57;;
14272;SDS011;7220;49.450;11.052;2023-03-04T17:25:44;23.02;;;14.23;;
14272;SDS011;7220;49.450;11.052;2023-03-04T17:29:44;18.30;;;11.88;;
14272;SDS011;7220;49.450;11.052;2023-03-04T17:33:46;23.73;;;13.65;;
14272;SDS011;7220;49.450;11.052;2023-03-04T17:37:47;20.58;;;12.38;;
14272;SDS011;7220;49.450;11.052;2023-03-04T17:41:48;14.65;;;10.18;;
14272;SDS011;7220;49.450;11.052;2023-03-04T17:45:50;16.35;;;10.73;;
14272;SDS011;7220;49.450;11.052;2023-03-04T17:49:50;21.33;;;11.07;;
14272;SDS011;7220;49.450;11.052;2023-03-04T17:53:50;16.38;;;10.60;;
14272;SDS011;7220;49.450;11.052;2023-03-04T17:57:51;23.25;;;10.77;;
14272;SDS011;7220;49.450;11.052;2023-03-04T18:01:52;21.80;;;10.57;;
14272;SDS011;7220;49.450;11.052;2023-03-04T18:05:52;17.23;;;10.23;;
14272;SDS011;7220;49.450;11.052;2023-03-04T18:24:43;19.92;;;10.43;;
14272;SDS011;7220;49.450;11.052;2023-03-04T18:28:43;13.98;;;10.02;;
14272;SDS011;7220;49.450;11.052;2023-03-04T18:32:44;16.63;;;8.85;;
14272;SDS011;7220;49.450;11.052;2023-03-04T18:36:44;16.88;;;9.73;;
14272;SDS011;7220;49.450;11.052;2023-03-04T18:40:46;15.73;;;10.38;;
14272;SDS011;7220;49.450;11.052;2023-03-04T18:44:46;16.70;;;9.50;;
14272;SDS011;7220;49.450;11.052;2023-03-04T18:48:48;17.48;;;9.70;;
14272;SDS011;7220;49.450;11.052;2023-03-04T18:52:51;18.13;;;9.88;;
14272;SDS011;7220;49.450;11.052;2023-03-04T18:56:55;15.88;;;9.52;;
14272;SDS011;7220;49.450;11.052;2023-03-04T19:00:57;20.27;;;9.50;;
14272;SDS011;7220;49.450;11.052;2023-03-04T19:05:02;15.63;;;8.93;;
14272;SDS011;7220;49.450;11.052;2023-03-04T19:09:05;17.42;;;10.55;;
14272;SDS011;7220;49.450;11.052;2023-03-04T19:13:05;15.02;;;9.32;;
14272;SDS011;7220;49.450;11.052;2023-03-04T19:17:05;11.70;;;9.10;;
14272;SDS011;7220;49.450;11.052;2023-03-04T19:21:06;14.40;;;10.00;;
14272;SDS011;7220;49.450;11.052;2023-03-04T19:25:06;14.77;;;9.75;;
14272;SDS011;7220;49.450;11.052;2023-03-04T19:29:07;16.38;;;9.55;;
14272;SDS011;7220;49.450;11.052;2023-03-04T19:33:08;16.33;;;9.85;;
14272;SDS011;7220;49.450;11.052;2023-03-04T19:37:09;18.88;;;10.18;;
14272;SDS011;7220;49.450;11.052;2023-03-04T19:41:10;16.02;;;8.75;;
14272;SDS011;7220;49.450;11.052;2023-03-04T19:45:12;15.65;;;9.18;;
14272;SDS011;7220;49.450;11.052;2023-03-04T19:49:12;17.90;;;10.02;;
14272;SDS011;7220;49.450;11.052;2023-03-04T19:53:13;20.00;;;9.60;;
14272;SDS011;7220;49.450;11.052;2023-03-04T19:57:17;20.10;;;10.02;;
14272;SDS011;7220;49.450;11.052;2023-03-04T20:01:25;15.77;;;9.77;;
14272;SDS011;7220;49.450;11.052;2023-03-04T20:05:27;18.67;;;9.75;;
14272;SDS011;7220;49.450;11.052;2023-03-04T20:09:28;18.25;;;10.75;;
14272;SDS011;7220;49.450;11.052;2023-03-04T20:13:28;21.35;;;10.73;;
14272;SDS011;7220;49.450;11.052;2023-03-04T20:17:28;14.50;;;10.80;;
14272;SDS011;7220;49.450;11.052;2023-03-04T20:21:31;16.48;;;10.07;;
14272;SDS011;7220;49.450;11.052;2023-03-04T20:25:32;18.58;;;10.25;;
14272;SDS011;7220;49.450;11.052;2023-03-04T20:29:32;18.83;;;9.70;;
14272;SDS011;7220;49.450;11.052;2023-03-04T20:33:32;19.27;;;11.45;;
14272;SDS011;7220;49.450;11.052;2023-03-04T20:37:34;14.88;;;10.02;;
14272;SDS011;7220;49.450;11.052;2023-03-04T20:41:35;19.23;;;9.50;;
14272;SDS011;7220;49.450;11.052;2023-03-04T20:45:36;16.83;;;10.38;;
14272;SDS011;7220;49.450;11.052;2023-03-04T20:49:37;17.60;;;10.60;;
14272;SDS011;7220;49.450;11.052;2023-03-04T20:53:37;22.60;;;11.30;;
14272;SDS011;7220;49.450;11.052;2023-03-04T20:57:38;18.50;;;11.57;;
14272;SDS011;7220;49.450;11.052;2023-03-04T21:01:39;21.23;;;10.98;;
14272;SDS011;7220;49.450;11.052;2023-03-04T21:05:42;17.83;;;12.13;;
14272;SDS011;7220;49.450;11.052;2023-03-04T21:09:42;17.83;;;11.25;;
14272;SDS011;7220;49.450;11.052;2023-03-04T21:13:43;21.23;;;11.52;;
14272;SDS011;7220;49.450;11.052;2023-03-04T21:17:44;20.42;;;13.15;;
14272;SDS011;7220;49.450;11.052;2023-03-04T21:21:45;24.38;;;12.65;;
14272;SDS011;7220;49.450;11.052;2023-03-04T21:25:47;21.05;;;13.15;;
14272;SDS011;7220;49.450;11.052;2023-03-04T21:29:47;20.08;;;13.13;;
14272;SDS011;7220;49.450;11.052;2023-03-04T21:33:48;23.13;;;12.45;;
14272;SDS011;7220;49.450;11.052;2023-03-04T21:37:49;21.88;;;13.32;;
14272;SDS011;7220;49.450;11.052;2023-03-04T21:41:50;22.50;;;14.60;;
14272;SDS011;7220;49.450;11.052;2023-03-04T21:45:52;22.90;;;15.27;;
14272;SDS011;7220;49.450;11.052;2023-03-04T21:49:54;23.20;;;14.93;;
14272;SDS011;7220;49.450;11.052;2023-03-04T21:53:54;24.88;;;15.50;;
14272;SDS011;7220;49.450;11.052;2023-03-04T21:57:54;21.58;;;14.30;;
14272;SDS011;7220;49.450;11.052;2023-03-04T22:01:55;22.63;;;15.35;;
14272;SDS011;7220;49.450;11.052;2023-03-04T22:05:55;24.17;;;15.05;;
14272;SDS011;7220;49.450;11.052;2023-03-04T22:09:58;23.85;;;13.88;;
14272;SDS011;7220;49.450;11.052;2023-03-04T22:13:59;26.30;;;15.07;;
14272;SDS011;7220;49.450;11.052;2023-03-04T22:18:02;28.15;;;14.85;;
14272;SDS011;7220;49.450;11.052;2023-03-04T22:22:03;21.95;;;14.77;;
14272;SDS011;7220;49.450;11.052;2023-03-04T22:26:05;29.80;;;15.48;;
14272;SDS011;7220;49.450;11.052;2023-03-04T22:30:13;29.88;;;17.17;;
14272;SDS011;7220;49.450;11.052;2023-03-04T22:34:16;23.80;;;15.73;;
14272;SDS011;7220;49.450;11.052;2023-03-04T22:38:17;25.35;;;16.42;;
14272;SDS011;7220;49.450;11.052;2023-03-04T22:42:18;24.35;;;15.57;;
14272;SDS011;7220;49.450;11.052;2023-03-04T22:46:22;25.42;;;15.13;;
14272;SDS011;7220;49.450;11.052;2023-03-04T22:50:28;24.65;;;15.48;;
14272;SDS011;7220;49.450;11.052;2023-03-04T22:54:28;23.27;;;16.30;;
14272;SDS011;7220;49.450;11.052;2023-03-04T22:58:28;26.05;;;15.82;;
14272;SDS011;7220;49.450;11.052;2023-03-04T23:02:29;23.90;;;15.55;;
14272;SDS011;7220;49.450;11.052;2023-03-04T23:06:29;30.38;;;15.82;;
14272;SDS011;7220;49.450;11.052;2023-03-04T23:10:30;22.00;;;14.75;;
14272;SDS011;7220;49.450;11.052;2023-03-04T23:14:30;25.17;;;15.20;;
14272;SDS011;7220;49.450;11.052;2023-03-04T23:18:31;22.55;;;14.27;;
14272;SDS011;7220;49.450;11.052;2023-03-04T23:22:31;24.63;;;15.68;;
14272;SDS011;7220;49.450;11.052;2023-03-04T23:26:36;25.05;;;14.98;;
14272;SDS011;7220;49.450;11.052;2023-03-04T23:30:40;25.42;;;15.10;;
14272;SDS011;7220;49.450;11.052;2023-03-04T23:34:40;26.92;;;15.02;;
14272;SDS011;7220;49.450;11.052;2023-03-04T23:38:41;26.95;;;15.02;;
14272;SDS011;7220;49.450;11.052;2023-03-04T23:42:43;26.50;;;15.32;;
14272;SDS011;7220;49.450;11.052;2023-03-04T23:46:43;24.23;;;15.30;;
14272;SDS011;7220;49.450;11.052;2023-03-04T23:50:48;26.38;;;15.15;;
14272;SDS011;7220;49.450;11.052;2023-03-04T23:54:50;27.10;;;16.90;;
14272;SDS011;7220;49.450;11.052;2023-03-04T23:58:50;28.17;;;15.82;;
